Time;durP1;ratioP1;P1;durP2;ratioP2;P2;SDS_P1;SDS_P2;PMS_P1;PMS_P2;Temp;Humidity;BMP_temperature;BMP_pressure;BME280_temperature;BME280_humidity;BME280_pressure;Samples;Min_cycle;Max_cycle;Signal;HPM_P1;HPM_P2
2022/09/08 00:02:39;;;;;;;;;;;;;;;23.34;53.41;100461.80;2222302;80;50369;-76
2022/09/08 00:05:43;;;;;;;;;;;;;;;23.34;53.41;100465.84;2221768;79;50688;-75
2022/09/08 00:08:45;;;;;;;;;;;;;;;23.34;53.39;100471.25;2200630;80;49482;-76
2022/09/08 00:11:46;;;;;;;;;;;;;;;23.33;53.36;100465.55;2165914;81;50846;-75
2022/09/08 00:14:48;;;;;;;;;;;;;;;23.32;53.38;100468.75;2186069;81;51513;-75
2022/09/08 00:17:49;;;;;;;;;;;;;;;23.34;53.33;100467.20;2186324;81;51544;-76
2022/09/08 00:20:51;;;;;;;;;;;;;;;23.32;53.30;100466.05;2236311;79;52490;-76
2022/09/08 00:23:53;;;;;;;;;;;;;;;23.33;53.32;100465.55;2208631;78;50845;-75
2022/09/08 00:26:54;;;;;;;;;;;;;;;23.32;53.30;100452.55;2240161;79;50340;-75
2022/09/08 00:29:56;;;;;;;;;;;;;;;23.34;53.29;100453.70;2240451;79;50359;-76
2022/09/08 00:32:57;;;;;;;;;;;;;;;23.36;53.24;100452.96;2208979;79;50424;-76
2022/09/08 00:35:59;;;;;;;;;;;;;;;23.37;53.15;100460.82;2240088;78;50372;-76
2022/09/08 00:39:01;;;;;;;;;;;;;;;23.38;53.10;100452.22;2213998;79;51521;-75
2022/09/08 00:42:03;;;;;;;;;;;;;;;23.36;53.10;100452.96;2186772;81;50149;-75
2022/09/08 00:45:04;;;;;;;;;;;;;;;23.36;53.12;100465.93;2190965;79;52497;-76
2022/09/08 00:48:07;;;;;;;;;;;;;;;23.37;53.10;100461.34;2224167;78;51405;-76
2022/09/08 00:51:09;;;;;;;;;;;;;;;23.37;53.08;100458.66;2202306;80;50513;-76
2022/09/08 00:54:10;;;;;;;;;;;;;;;23.35;53.06;100453.48;2201984;81;50721;-76
2022/09/08 00:57:12;;;;;;;;;;;;;;;23.35;53.04;100440.48;2171660;81;51343;-75
2022/09/08 01:00:16;;;;;;;;;;;;;;;23.36;52.99;100447.03;2226051;79;51539;-76
2022/09/08 01:03:18;;;;;;;;;;;;;;;23.36;52.97;100443.51;2202137;81;51525;-76
2022/09/08 01:12:43;;;;;;;;;;;;;;;23.34;52.97;100442.90;2202193;80;51683;-76
2022/09/08 01:12:55;;;;;;;;;;;;;;;23.38;52.80;100441.42;2202608;80;22356;-75
2022/09/08 01:15:57;;;;;;;;;;;;;;;23.39;52.74;100432.27;2211948;79;52236;-75
2022/09/08 01:18:58;;;;;;;;;;;;;;;23.38;52.72;100432.80;2224814;79;50798;-75
2022/09/08 01:22:05;;;;;;;;;;;;;;;23.39;52.73;100436.31;2213576;79;52595;-77
2022/09/08 01:25:26;;;;;;;;;;;;;;;23.35;52.85;100437.79;2236348;78;50670;-77
2022/09/08 01:28:27;;;;;;;;;;;;;;;23.35;52.93;100439.14;2234232;79;22333;-76
2022/09/08 01:31:31;;;;;;;;;;;;;;;23.33;52.99;100429.11;2234023;79;51605;-76
2022/09/08 01:34:40;;;;;;;;;;;;;;;23.34;52.96;100438.84;2213133;79;52555;-76
2022/09/08 01:37:42;;;;;;;;;;;;;;;23.33;52.86;100433.98;2224329;79;50599;-76
2022/09/08 01:40:43;;;;;;;;;;;;;;;23.35;52.83;100434.59;2216658;80;51610;-77
2022/09/08 01:43:45;;;;;;;;;;;;;;;23.38;52.74;100438.72;2228179;79;53660;-77
2022/09/08 01:46:46;;;;;;;;;;;;;;;23.36;52.81;100452.96;2216237;79;51541;-77
2022/09/08 01:49:48;;;;;;;;;;;;;;;23.37;52.68;100446.50;2204367;80;52530;-77
2022/09/08 01:52:50;;;;;;;;;;;;;;;23.37;52.71;100443.80;2216642;80;50286;-77
2022/09/08 01:55:52;;;;;;;;;;;;;;;23.37;52.71;100439.75;2228086;79;51475;-77
2022/09/08 01:58:53;;;;;;;;;;;;;;;23.35;52.78;100433.23;2216665;79;51461;-77
2022/09/08 02:01:55;;;;;;;;;;;;;;;23.36;52.75;100432.18;2205579;80;51073;-77
2022/09/08 02:04:56;;;;;;;;;;;;;;;23.36;52.71;100409.77;2228128;79;52115;-77
2022/09/08 02:07:58;;;;;;;;;;;;;;;23.35;52.72;100408.94;2216634;80;50406;-78
2022/09/08 02:11:00;;;;;;;;;;;;;;;23.34;52.72;100403.22;2228581;79;50675;-77
2022/09/08 02:14:02;;;;;;;;;;;;;;;23.35;52.65;100395.94;2216464;80;50204;-77
2022/09/08 02:17:04;;;;;;;;;;;;;;;23.33;52.69;100402.93;2204497;80;51476;-77
2022/09/08 02:20:06;;;;;;;;;;;;;;;23.33;52.68;100404.81;2215973;80;51480;-77
2022/09/08 02:23:08;;;;;;;;;;;;;;;23.35;52.68;100412.14;2216030;80;50267;-77
2022/09/08 02:26:11;;;;;;;;;;;;;;;23.33;52.67;100419.13;2193661;80;50772;-77
2022/09/08 02:29:13;;;;;;;;;;;;;;;23.32;52.70;100418.80;2213929;80;51607;-78
2022/09/08 02:32:14;;;;;;;;;;;;;;;23.31;52.76;100408.25;2209738;80;50309;-78
2022/09/08 02:35:17;;;;;;;;;;;;;;;23.32;52.72;100412.05;2235386;79;50057;-77
2022/09/08 02:38:19;;;;;;;;;;;;;;;23.34;52.62;100404.57;2207508;80;50644;-78
2022/09/08 02:41:21;;;;;;;;;;;;;;;23.35;52.61;100405.39;2207582;80;51384;-78
2022/09/08 02:44:22;;;;;;;;;;;;;;;23.35;52.58;100394.59;2207295;80;50345;-78
2022/09/08 02:47:24;;;;;;;;;;;;;;;23.34;52.54;100399.17;2207554;80;50735;-78
2022/09/08 02:50:25;;;;;;;;;;;;;;;23.34;52.55;100407.27;2235248;79;51822;-77
2022/09/08 02:53:28;;;;;;;;;;;;;;;23.34;52.51;100405.09;2235152;79;51602;-77
2022/09/08 02:56:29;;;;;;;;;;;;;;;23.34;52.57;100405.09;2208336;80;51523;-76
2022/09/08 02:59:31;;;;;;;;;;;;;;;23.34;52.57;100390.25;2216454;80;51461;-77
2022/09/08 03:02:32;;;;;;;;;;;;;;;23.35;52.55;100390.54;2205560;80;52404;-77
2022/09/08 03:05:34;;;;;;;;;;;;;;;23.35;52.52;100389.19;2228352;79;50404;-77
2022/09/08 03:08:36;;;;;;;;;;;;;;;23.38;52.44;100391.47;2216761;80;49912;-77
2022/09/08 03:11:38;;;;;;;;;;;;;;;23.36;52.39;100390.86;2209802;80;51582;-76
2022/09/08 03:14:39;;;;;;;;;;;;;;;23.36;52.41;100387.62;2217015;80;50116;-77
2022/09/08 03:17:41;;;;;;;;;;;;;;;23.36;52.42;100394.38;2228397;79;50684;-76
2022/09/08 03:20:44;;;;;;;;;;;;;;;23.37;52.42;100391.16;2216700;80;51501;-76
2022/09/08 03:23:46;;;;;;;;;;;;;;;23.37;52.39;100383.05;2216454;80;50805;-77
2022/09/08 03:26:47;;;;;;;;;;;;;;;23.36;52.38;100374.66;2205500;80;49493;-76
2022/09/08 03:29:49;;;;;;;;;;;;;;;23.37;52.37;100368.20;2228510;79;50687;-76
2022/09/08 03:32:50;;;;;;;;;;;;;;;23.37;52.36;100357.40;2216684;80;50692;-77
2022/09/08 03:35:52;;;;;;;;;;;;;;;23.36;52.35;100357.11;2216557;79;51520;-77
2022/09/08 03:38:54;;;;;;;;;;;;;;;23.36;52.35;100351.71;2205710;80;50972;-76
2022/09/08 03:41:56;;;;;;;;;;;;;;;23.35;52.29;100357.64;2192758;79;50736;-76
2022/09/08 03:44:57;;;;;;;;;;;;;;;23.35;52.29;100367.09;2215792;80;51504;-76
2022/09/08 03:47:59;;;;;;;;;;;;;;;23.34;52.27;100368.65;2193907;80;50638;-76
2022/09/08 03:51:08;;;;;;;;;;;;;;;23.35;52.25;100368.94;2193677;80;49628;-76
2022/09/08 03:57:29;;;;;;;;;;;;;;;23.35;52.23;100354.94;2216338;80;24342;-77
2022/09/08 04:00:31;;;;;;;;;;;;;;;23.34;52.23;100357.85;2215925;80;51510;-78
2022/09/08 04:03:32;;;;;;;;;;;;;;;23.34;52.24;100355.97;2193489;80;49550;-78
2022/09/08 04:06:34;;;;;;;;;;;;;;;23.34;52.19;100349.22;2189117;80;50330;-77
2022/09/08 04:09:36;;;;;;;;;;;;;;;23.34;52.18;100344.35;2185011;80;50245;-78
2022/09/08 04:12:37;;;;;;;;;;;;;;;23.35;52.18;100344.64;2180863;81;50241;-77
2022/09/08 04:15:39;;;;;;;;;;;;;;;23.35;52.16;100345.99;2217089;79;49493;-77
2022/09/08 04:18:41;;;;;;;;;;;;;;;23.33;52.15;100337.31;2180829;81;51504;-77
2022/09/08 04:21:42;;;;;;;;;;;;;;;23.35;52.14;100333.84;2180718;81;50310;-77
2022/09/08 04:24:44;;;;;;;;;;;;;;;23.35;52.12;100341.94;2180638;81;50373;-77
2022/09/08 04:27:45;;;;;;;;;;;;;;;23.33;52.11;100338.13;2217280;79;49548;-76
2022/09/08 04:30:47;;;;;;;;;;;;;;;23.33;52.12;100335.97;2180856;80;50687;-77
2022/09/08 04:33:48;;;;;;;;;;;;;;;23.31;52.26;100329.42;2180645;81;51578;-77
2022/09/08 04:36:50;;;;;;;;;;;;;;;23.31;52.20;100314.58;2192533;80;51572;-77
2022/09/08 04:39:52;;;;;;;;;;;;;;;23.33;52.17;100327.33;2242725;79;52550;-76
2022/09/08 04:42:53;;;;;;;;;;;;;;;23.33;52.12;100323.81;2216681;80;51614;-76
2022/09/08 04:45:55;;;;;;;;;;;;;;;23.28;52.14;100316.91;2228154;79;51492;-76
2022/09/08 04:48:56;;;;;;;;;;;;;;;23.30;52.13;100319.69;2216732;80;51454;-77
2022/09/08 04:51:58;;;;;;;;;;;;;;;23.32;52.03;100318.09;2205476;80;50110;-77
2022/09/08 04:55:01;;;;;;;;;;;;;;;23.26;50.67;100319.28;2228032;79;51488;-77
2022/09/08 04:58:03;;;;;;;;;;;;;;;23.22;49.46;100322.64;2216563;80;51501;-77
2022/09/08 05:01:05;;;;;;;;;;;;;;;23.17;49.97;100324.69;2216551;80;50368;-77
2022/09/08 05:04:06;;;;;;;;;;;;;;;23.09;50.00;100323.59;2205257;80;51018;-78
2022/09/08 05:07:08;;;;;;;;;;;;;;;23.11;49.95;100326.90;2186562;80;51481;-76
2022/09/08 05:10:09;;;;;;;;;;;;;;;23.14;50.25;100326.45;2215989;80;50405;-76
2022/09/08 05:13:11;;;;;;;;;;;;;;;23.13;50.09;100329.39;2193810;80;50057;-76
2022/09/08 05:16:14;;;;;;;;;;;;;;;23.13;50.57;100319.94;2170482;80;50035;-76
2022/09/08 05:19:15;;;;;;;;;;;;;;;23.15;50.48;100332.70;2193537;80;52014;-77
2022/09/08 05:22:17;;;;;;;;;;;;;;;23.15;50.35;100330.82;2193605;80;50326;-77
2022/09/08 05:25:18;;;;;;;;;;;;;;;23.15;50.44;100325.42;2215806;80;50310;-76
2022/09/08 05:28:20;;;;;;;;;;;;;;;23.15;50.43;100325.42;2193715;80;50222;-77
2022/09/08 05:31:22;;;;;;;;;;;;;;;23.14;50.41;100318.35;2193860;80;51524;-76
2022/09/08 05:34:24;;;;;;;;;;;;;;;23.15;50.36;100321.91;2200644;79;50257;-75
2022/09/08 05:37:28;;;;;;;;;;;;;;;23.15;50.43;100323.25;2213275;80;50308;-75
2022/09/08 05:40:29;;;;;;;;;;;;;;;23.14;50.39;100326.45;2218221;80;50287;-76
2022/09/08 05:43:31;;;;;;;;;;;;;;;23.15;50.33;100325.42;2196238;80;50696;-76
2022/09/08 05:46:32;;;;;;;;;;;;;;;23.15;50.39;100324.59;2217407;79;51402;-74
2022/09/08 05:49:34;;;;;;;;;;;;;;;23.17;50.51;100325.18;2221069;79;49912;-76
2022/09/08 05:52:36;;;;;;;;;;;;;;;23.17;50.43;100321.98;2267334;77;52564;-75
2022/09/08 05:55:37;;;;;;;;;;;;;;;23.15;50.54;100313.27;2259068;78;51527;-76
2022/09/08 05:58:39;;;;;;;;;;;;;;;23.17;50.64;100316.59;2259149;78;51338;-75
2022/09/08 06:01:40;;;;;;;;;;;;;;;23.18;50.52;100320.92;2230170;78;51493;-76
2022/09/08 06:04:42;;;;;;;;;;;;;;;23.16;50.63;100318.97;2260921;78;50910;-76
2022/09/08 06:07:44;;;;;;;;;;;;;;;23.15;50.59;100324.07;2216717;79;50755;-76
2022/09/08 06:10:48;;;;;;;;;;;;;;;23.14;50.82;100322.93;2183553;81;51466;-76
2022/09/08 06:13:51;;;;;;;;;;;;;;;23.12;50.73;100329.92;2183476;81;50542;-76
2022/09/08 06:16:52;;;;;;;;;;;;;;;23.15;50.67;100325.42;2195899;80;51046;-75
2022/09/08 06:19:54;;;;;;;;;;;;;;;23.13;50.83;100321.29;2220268;79;49539;-75
2022/09/08 06:22:56;;;;;;;;;;;;;;;23.11;50.87;100330.95;2183460;81;50196;-75
2022/09/08 06:25:59;;;;;;;;;;;;;;;23.09;50.96;100328.98;2219848;79;50358;-75
2022/09/08 06:29:03;;;;;;;;;;;;;;;23.12;50.90;100327.22;2207076;80;51948;-74
2022/09/08 06:32:23;;;;;;;;;;;;;;;23.14;50.91;100322.40;2223488;80;51372;-74
2022/09/08 06:35:26;;;;;;;;;;;;;;;23.16;50.91;100323.54;2213919;80;51448;-76
2022/09/08 06:38:35;;;;;;;;;;;;;;;23.15;50.93;100328.12;2215791;79;50267;-76
2022/09/08 06:41:41;;;;;;;;;;;;;;;23.15;50.89;100322.72;2242254;79;50962;-76
2022/09/08 06:44:43;;;;;;;;;;;;;;;23.16;50.84;100321.66;2213994;79;51577;-76
2022/09/08 06:47:45;;;;;;;;;;;;;;;23.16;50.85;100332.45;2215239;80;50208;-75
2022/09/08 06:50:54;;;;;;;;;;;;;;;23.17;50.76;100325.18;2215060;80;50263;-76
2022/09/08 06:54:15;;;;;;;;;;;;;;;23.15;50.74;100321.38;2196172;79;51412;-76
2022/09/08 06:57:30;;;;;;;;;;;;;;;23.16;50.79;100315.45;2215610;80;50688;-75
2022/09/08 07:00:33;;;;;;;;;;;;;;;23.15;50.75;100322.72;2215212;80;50433;-75
2022/09/08 07:03:53;;;;;;;;;;;;;;;23.14;50.87;100321.05;2213622;80;50355;-75
2022/09/08 07:07:00;;;;;;;;;;;;;;;23.13;50.82;100305.92;2195488;80;51031;-75
2022/09/08 07:10:06;;;;;;;;;;;;;;;23.14;50.82;100302.16;2203769;81;51506;-75
2022/09/08 07:13:15;;;;;;;;;;;;;;;23.14;50.78;100308.91;2202760;80;51373;-75
2022/09/08 07:16:35;;;;;;;;;;;;;;;23.13;50.74;100307.27;2201350;79;50456;-75
2022/09/08 07:19:53;;;;;;;;;;;;;;;23.15;50.72;100305.70;2169148;81;50102;-75
2022/09/08 07:22:59;;;;;;;;;;;;;;;23.14;50.68;100298.11;2203165;80;51498;-75
2022/09/08 07:26:02;;;;;;;;;;;;;;;23.15;50.65;100279.54;2201255;79;51621;-76
2022/09/08 07:29:06;;;;;;;;;;;;;;;23.15;50.62;100274.67;2202070;81;51467;-76
2022/09/08 07:32:09;;;;;;;;;;;;;;;23.15;50.62;100267.92;2167657;81;49594;-76
2022/09/08 07:35:12;;;;;;;;;;;;;;;23.15;50.58;100279.54;2210371;79;50398;-76
2022/09/08 07:38:16;;;;;;;;;;;;;;;23.15;50.61;100299.78;2206294;80;50761;-75
2022/09/08 07:41:19;;;;;;;;;;;;;;;23.15;50.59;100317.33;2190529;79;50234;-75
2022/09/08 07:44:21;;;;;;;;;;;;;;;23.16;50.57;100319.49;2171056;81;51499;-76
2022/09/08 07:47:43;;;;;;;;;;;;;;;23.15;50.54;100311.92;2218774;79;50653;-75
2022/09/08 07:50:55;;;;;;;;;;;;;;;23.15;50.51;100307.87;2190985;80;50760;-75
2022/09/08 07:53:59;;;;;;;;;;;;;;;23.15;50.50;100303.83;2190727;80;50661;-76
2022/09/08 07:57:05;;;;;;;;;;;;;;;23.16;50.49;100303.30;2172969;80;51678;-76
2022/09/08 08:00:14;;;;;;;;;;;;;;;23.14;50.47;100303.51;2192060;79;50436;-76
2022/09/08 08:03:23;;;;;;;;;;;;;;;23.15;50.43;100298.43;2190881;80;50795;-76
2022/09/08 08:06:29;;;;;;;;;;;;;;;23.13;50.44;100304.56;2196352;80;50672;-76
2022/09/08 08:09:48;;;;;;;;;;;;;;;23.14;50.46;100299.98;2177636;80;52687;-76
2022/09/08 08:13:07;;;;;;;;;;;;;;;23.15;50.44;100303.02;2203214;80;50799;-76
2022/09/08 08:16:10;;;;;;;;;;;;;;;23.14;50.45;100308.09;2203266;80;50477;-76
2022/09/08 08:19:19;;;;;;;;;;;;;;;23.13;50.40;100303.22;2203598;80;51503;-76
2022/09/08 08:22:32;;;;;;;;;;;;;;;23.13;50.35;100297.82;2174523;80;52549;-76
2022/09/08 08:25:44;;;;;;;;;;;;;;;23.11;50.38;100286.41;2202505;80;51562;-76
2022/09/08 08:28:45;;;;;;;;;;;;;;;23.10;50.33;100282.61;2203421;80;50788;-76
2022/09/08 08:31:51;;;;;;;;;;;;;;;23.10;50.33;100280.73;2175253;80;50622;-75
2022/09/08 08:34:54;;;;;;;;;;;;;;;23.10;50.37;100286.12;2179876;79;51371;-76
2022/09/08 08:37:56;;;;;;;;;;;;;;;23.09;50.30;100295.25;2196894;79;50448;-75
2022/09/08 08:40:58;;;;;;;;;;;;;;;23.09;50.30;100295.25;2197891;80;50665;-75
2022/09/08 08:44:10;;;;;;;;;;;;;;;23.08;50.32;100290.91;2214244;80;50274;-75
2022/09/08 08:47:16;;;;;;;;;;;;;;;23.07;50.30;100291.97;2185482;79;51154;-75
2022/09/08 08:50:20;;;;;;;;;;;;;;;23.07;50.25;100294.67;2214437;80;51542;-76
2022/09/08 08:53:26;;;;;;;;;;;;;;;23.08;50.26;100284.16;2214227;80;51445;-76
2022/09/08 08:56:30;;;;;;;;;;;;;;;23.07;50.24;100277.63;2214407;80;51500;-76
2022/09/08 08:59:39;;;;;;;;;;;;;;;23.08;50.26;100270.67;2214391;79;50636;-76
2022/09/08 09:02:59;;;;;;;;;;;;;;;23.08;50.21;100266.63;2215340;79;50787;-76
2022/09/08 09:06:05;;;;;;;;;;;;;;;23.07;50.22;100263.63;2209407;80;50339;-76
2022/09/08 09:09:25;;;;;;;;;;;;;;;23.07;50.21;100251.49;2186524;81;51730;-75
2022/09/08 09:12:45;;;;;;;;;;;;;;;23.08;50.19;100250.43;2220329;79;52479;-76
2022/09/08 09:16:04;;;;;;;;;;;;;;;23.08;50.20;100244.22;2181468;80;51440;-77
2022/09/08 09:19:11;;;;;;;;;;;;;;;23.08;50.20;100244.22;2181559;80;51528;-76
2022/09/08 09:22:14;;;;;;;;;;;;;;;23.07;50.20;100242.05;2181632;81;50130;-77
2022/09/08 09:25:17;;;;;;;;;;;;;;;23.06;50.15;100229.58;2172353;81;50121;-74
2022/09/08 09:28:35;;;;;;;;;;;;;;;23.07;50.19;100231.25;2172515;81;50203;-74
2022/09/08 09:32:00;;;;;;;;;;;;;;;23.05;50.17;100226.59;2181572;80;52436;-75
2022/09/08 09:35:04;;;;;;;;;;;;;;;23.04;50.20;100219.53;2189501;79;22776;-76
2022/09/08 09:38:09;;;;;;;;;;;;;;;23.05;50.16;100229.30;2167188;81;51081;-76
2022/09/08 09:41:12;;;;;;;;;;;;;;;23.06;50.15;100213.39;2164687;81;22435;-76
2022/09/08 09:44:21;;;;;;;;;;;;;;;23.03;50.19;100203.05;2164605;80;50333;-76
2022/09/08 09:47:27;;;;;;;;;;;;;;;23.04;50.19;100199.29;2164399;81;51588;-76
2022/09/08 09:50:46;;;;;;;;;;;;;;;23.04;50.15;100197.45;2155726;82;51878;-76
2022/09/08 09:54:00;;;;;;;;;;;;;;;23.04;50.17;100192.55;2164220;81;51475;-76
2022/09/08 09:57:20;;;;;;;;;;;;;;;23.04;50.17;100191.20;2164753;81;22347;-76
2022/09/08 10:00:25;;;;;;;;;;;;;;;23.03;50.14;100201.70;2164380;81;50661;-76
2022/09/08 10:03:31;;;;;;;;;;;;;;;23.03;50.13;100204.40;2202596;80;51010;-76
2022/09/08 10:06:40;;;;;;;;;;;;;;;23.02;50.15;100217.60;2198806;80;51370;-76
2022/09/08 10:09:43;;;;;;;;;;;;;;;23.02;50.15;100217.08;2207234;80;51640;-76
2022/09/08 10:12:53;;;;;;;;;;;;;;;23.01;50.15;100218.63;2207425;79;51406;-76
2022/09/08 10:15:59;;;;;;;;;;;;;;;23.01;50.12;100234.82;2186758;80;49899;-76
2022/09/08 10:19:15;;;;;;;;;;;;;;;22.99;50.15;100251.25;2207248;79;51570;-76
2022/09/08 10:22:21;;;;;;;;;;;;;;;23.00;50.19;100248.02;2207532;79;51399;-76
2022/09/08 10:25:24;;;;;;;;;;;;;;;22.99;50.14;100259.84;2209252;80;50619;-76
2022/09/08 10:28:44;;;;;;;;;;;;;;;22.98;50.18;100256.86;2187129;80;50935;-76
2022/09/08 10:32:04;;;;;;;;;;;;;;;22.99;50.19;100258.50;2207286;80;51571;-76
2022/09/08 10:35:25;;;;;;;;;;;;;;;22.98;50.17;100264.95;2207017;80;50910;-76
2022/09/08 10:38:44;;;;;;;;;;;;;;;22.98;50.17;100285.19;2207268;80;50695;-76
2022/09/08 10:41:47;;;;;;;;;;;;;;;22.98;50.17;100295.45;2188015;79;51012;-76
2022/09/08 10:44:59;;;;;;;;;;;;;;;22.96;50.19;100297.51;2213645;79;51546;-76
2022/09/08 10:48:09;;;;;;;;;;;;;;;22.96;50.19;100265.13;2213919;80;51567;-75
2022/09/08 10:51:12;;;;;;;;;;;;;;;22.97;50.15;100230.94;2213835;79;50395;-76
2022/09/08 10:54:18;;;;;;;;;;;;;;;22.97;50.16;100233.64;2182816;80;49644;-76
2022/09/08 10:57:21;;;;;;;;;;;;;;;22.97;50.09;100242.55;2215466;80;50393;-76
2022/09/08 11:00:23;;;;;;;;;;;;;;;22.96;50.14;100252.17;2213857;79;50271;-76
2022/09/08 11:03:26;;;;;;;;;;;;;;;22.97;50.15;100251.17;2213600;80;50397;-76
2022/09/08 11:06:45;;;;;;;;;;;;;;;22.97;50.15;100252.52;2194687;80;49648;-76
2022/09/08 11:09:54;;;;;;;;;;;;;;;22.94;50.17;100253.77;2221181;79;50248;-75
2022/09/08 11:13:15;;;;;;;;;;;;;;;22.98;50.17;100256.86;2228974;78;51682;-75
2022/09/08 11:16:19;;;;;;;;;;;;;;;22.97;50.24;100244.43;2207216;79;51493;-75
2022/09/08 11:19:40;;;;;;;;;;;;;;;22.96;50.35;100248.13;2208089;79;50058;-75
2022/09/08 11:22:46;;;;;;;;;;;;;;;22.97;50.33;100251.99;2208907;79;50415;-75
2022/09/08 11:25:49;;;;;;;;;;;;;;;22.99;50.42;100231.52;2219212;79;51603;-75
2022/09/08 11:28:53;;;;;;;;;;;;;;;23.01;50.47;100218.63;2222008;79;51565;-74
2022/09/08 11:32:12;;;;;;;;;;;;;;;23.00;50.49;100226.44;2209206;79;50983;-76
2022/09/08 11:35:33;;;;;;;;;;;;;;;23.00;50.61;100237.23;2240658;79;50725;-77
2022/09/08 11:38:39;;;;;;;;;;;;;;;23.03;50.77;100219.24;2240766;79;51615;-77
2022/09/08 11:41:45;;;;;;;;;;;;;;;23.03;50.70;100236.78;2238719;78;50447;-77
2022/09/08 11:44:49;;;;;;;;;;;;;;;23.00;50.83;100239.93;2217511;79;51472;-77
2022/09/08 11:48:08;;;;;;;;;;;;;;;22.96;50.84;100217.91;2218710;80;50376;-77
2022/09/08 11:51:15;;;;;;;;;;;;;;;23.02;50.99;100200.06;2218641;80;51574;-77
2022/09/08 11:54:36;;;;;;;;;;;;;;;23.02;50.95;100198.19;2218197;80;51594;-77
2022/09/08 11:57:46;;;;;;;;;;;;;;;23.02;51.01;100179.83;2203890;80;50146;-75
2022/09/08 12:00:56;;;;;;;;;;;;;;;23.01;50.86;100193.00;2234457;78;51672;-78
2022/09/08 12:04:16;;;;;;;;;;;;;;;23.02;50.80;100184.69;2217139;79;22305;-78
2022/09/08 12:07:22;;;;;;;;;;;;;;;23.01;50.87;100179.51;2186502;80;22528;-78
2022/09/08 12:10:42;;;;;;;;;;;;;;;23.00;50.88;100181.92;2217855;78;21771;-78
2022/09/08 12:14:05;;;;;;;;;;;;;;;22.98;50.97;100174.03;2212752;79;50779;-78
2022/09/08 12:17:25;;;;;;;;;;;;;;;22.98;50.99;100174.03;2187520;79;50761;-77
2022/09/08 12:20:28;;;;;;;;;;;;;;;22.98;50.93;100177.27;2184127;81;52365;-77
2022/09/08 12:23:32;;;;;;;;;;;;;;;22.98;50.88;100176.73;2172828;81;51050;-77
2022/09/08 12:26:41;;;;;;;;;;;;;;;22.99;50.90;100162.21;2184110;80;51507;-77
2022/09/08 12:29:57;;;;;;;;;;;;;;;23.00;50.89;100160.33;2184188;81;50751;-77
2022/09/08 12:33:16;;;;;;;;;;;;;;;23.02;50.84;100171.73;2197831;79;50277;-77
2022/09/08 12:36:19;;;;;;;;;;;;;;;23.00;50.86;100152.23;2226177;79;52788;-77
2022/09/08 12:39:23;;;;;;;;;;;;;;;23.02;50.83;100150.14;2236932;79;50377;-77
2022/09/08 12:42:32;;;;;;;;;;;;;;;23.00;50.82;100132.82;2216856;79;50362;-77
2022/09/08 12:45:50;;;;;;;;;;;;;;;23.00;50.84;100128.77;2206173;79;51612;-78
2022/09/08 12:48:59;;;;;;;;;;;;;;;23.00;50.83;100120.67;2184755;80;51932;-77
2022/09/08 12:52:02;;;;;;;;;;;;;;;23.01;50.84;100114.75;2210711;79;51765;-77
2022/09/08 12:55:05;;;;;;;;;;;;;;;23.01;50.88;100117.45;2212578;80;50751;-77
2022/09/08 12:58:07;;;;;;;;;;;;;;;23.00;50.90;100111.77;2213022;80;51790;-77
2022/09/08 13:01:22;;;;;;;;;;;;;;;23.00;50.96;100114.46;2191123;80;51002;-77
2022/09/08 13:04:42;;;;;;;;;;;;;;;23.01;50.86;100121.49;2210811;80;51587;-77
2022/09/08 13:07:54;;;;;;;;;;;;;;;23.00;50.96;100119.86;2205489;79;50731;-77
2022/09/08 13:11:03;;;;;;;;;;;;;;;23.01;50.88;100129.59;2182402;79;51634;-78
2022/09/08 13:14:05;;;;;;;;;;;;;;;23.00;50.93;100122.55;2171611;80;52578;-77
2022/09/08 13:17:08;;;;;;;;;;;;;;;22.98;50.93;100133.56;2182515;81;50738;-77
2022/09/08 13:20:23;;;;;;;;;;;;;;;23.00;50.94;100123.91;2184476;81;51703;-77
2022/09/08 13:23:32;;;;;;;;;;;;;;;22.99;50.93;100123.09;2181298;81;50580;-77
2022/09/08 13:26:35;;;;;;;;;;;;;;;22.98;50.96;100121.42;2171019;80;50888;-77
2022/09/08 13:29:55;;;;;;;;;;;;;;;23.00;50.95;100127.42;2181562;79;50776;-76
2022/09/08 13:33:15;;;;;;;;;;;;;;;22.98;51.16;100120.59;2181217;80;51589;-77
2022/09/08 13:36:33;;;;;;;;;;;;;;;22.98;51.20;100115.20;2210498;80;50638;-77
2022/09/08 13:39:37;;;;;;;;;;;;;;;22.99;51.16;100120.89;2193411;80;50967;-76
2022/09/08 13:42:46;;;;;;;;;;;;;;;22.99;51.23;100118.19;2217723;80;51564;-78
2022/09/08 13:46:01;;;;;;;;;;;;;;;23.00;51.13;100120.67;2219041;80;50693;-78
2022/09/08 13:49:15;;;;;;;;;;;;;;;22.99;51.11;100115.49;2182911;80;50700;-79
2022/09/08 13:52:18;;;;;;;;;;;;;;;22.98;51.13;100116.02;2199598;80;50062;-79
2022/09/08 13:55:38;;;;;;;;;;;;;;;22.96;51.19;100122.66;2228682;80;50322;-78
2022/09/08 13:58:46;;;;;;;;;;;;;;;22.94;51.18;100110.77;2224485;78;51554;-78
2022/09/08 14:01:48;;;;;;;;;;;;;;;22.96;51.15;100113.22;2261336;78;50866;-78
2022/09/08 14:04:51;;;;;;;;;;;;;;;22.95;51.13;100113.75;2236155;78;50906;-78
2022/09/08 14:07:54;;;;;;;;;;;;;;;22.96;51.20;100113.22;2222273;79;50459;-78
2022/09/08 14:11:03;;;;;;;;;;;;;;;22.94;51.17;100112.11;2185494;80;50469;-78
2022/09/08 14:14:12;;;;;;;;;;;;;;;22.95;51.18;100116.98;2219361;80;51531;-78
2022/09/08 14:17:15;;;;;;;;;;;;;;;22.93;51.24;100109.09;2195943;80;51896;-79
2022/09/08 14:20:18;;;;;;;;;;;;;;;22.94;51.21;100110.77;2218883;80;50843;-79
2022/09/08 14:23:37;;;;;;;;;;;;;;;22.97;51.15;100116.27;2218888;80;50607;-79
2022/09/08 14:26:49;;;;;;;;;;;;;;;22.96;51.25;100113.22;2220150;80;50660;-79
2022/09/08 14:29:53;;;;;;;;;;;;;;;22.95;51.23;100121.03;2201645;81;50356;-78
2022/09/08 14:32:57;;;;;;;;;;;;;;;22.93;51.23;100130.68;2198799;80;51516;-77
2022/09/08 14:36:00;;;;;;;;;;;;;;;22.93;51.23;100124.47;2211037;79;50574;-78
2022/09/08 14:39:06;;;;;;;;;;;;;;;22.93;51.23;100129.33;2219424;79;50337;-78
2022/09/08 14:42:23;;;;;;;;;;;;;;;22.92;51.20;100125.53;2196658;80;51979;-79
2022/09/08 14:45:33;;;;;;;;;;;;;;;22.92;51.24;100128.23;2196908;80;49916;-78
2022/09/08 14:48:41;;;;;;;;;;;;;;;22.93;51.21;100135.26;2203747;80;50660;-78
2022/09/08 14:51:47;;;;;;;;;;;;;;;22.93;51.22;100120.42;2193640;80;51430;-79
2022/09/08 14:54:56;;;;;;;;;;;;;;;22.92;51.22;100117.44;2189021;80;52940;-79
2022/09/08 14:58:17;;;;;;;;;;;;;;;22.91;51.17;100113.06;2197336;79;51033;-78
2022/09/08 15:01:24;;;;;;;;;;;;;;;22.91;51.25;100108.49;2237471;79;51585;-78
2022/09/08 15:04:28;;;;;;;;;;;;;;;22.92;51.19;100112.04;2236716;79;51539;-76
2022/09/08 15:07:30;;;;;;;;;;;;;;;22.90;51.31;100105.50;2226964;79;50632;-75
2022/09/08 15:10:33;;;;;;;;;;;;;;;22.89;51.65;100101.67;2203763;79;50035;-76
2022/09/08 15:13:38;;;;;;;;;;;;;;;22.89;51.90;100098.97;2183288;81;50715;-76
2022/09/08 15:16:57;;;;;;;;;;;;;;;22.90;52.57;100103.34;2191982;80;50331;-76
2022/09/08 15:20:00;;;;;;;;;;;;;;;22.88;54.33;100108.13;2224354;80;51507;-78
2022/09/08 15:23:22;;;;;;;;;;;;;;;22.92;54.54;100106.11;2194618;80;51356;-77
2022/09/08 15:26:28;;;;;;;;;;;;;;;22.89;55.22;100096.28;2226116;80;50424;-74
2022/09/08 15:29:35;;;;;;;;;;;;;;;22.87;55.98;100095.17;2226770;78;51613;-73
2022/09/08 15:32:57;;;;;;;;;;;;;;;22.99;55.49;100096.60;2235023;79;51498;-76
2022/09/08 15:36:04;;;;;;;;;;;;;;;22.96;55.77;100091.63;2211892;80;50941;-78
2022/09/08 15:39:07;;;;;;;;;;;;;;;22.98;55.57;100095.78;2225583;78;51653;-74
2022/09/08 15:42:13;;;;;;;;;;;;;;;22.97;55.44;100091.45;2215222;80;51433;-76
2022/09/08 15:45:26;;;;;;;;;;;;;;;22.98;55.72;100090.92;2216566;79;51512;-75
2022/09/08 15:48:29;;;;;;;;;;;;;;;22.98;55.24;100082.83;2110507;80;49642;-75
2022/09/08 15:51:49;;;;;;;;;;;;;;;22.90;55.85;100079.06;2215932;80;50381;-74
2022/09/08 15:54:53;;;;;;;;;;;;;;;22.92;55.70;100085.06;2215635;80;50726;-74
2022/09/08 15:58:05;;;;;;;;;;;;;;;22.93;55.24;100075.91;2215725;80;50705;-77
2022/09/08 16:01:08;;;;;;;;;;;;;;;22.98;54.98;100074.73;2193396;80;49571;-75
2022/09/08 16:04:30;;;;;;;;;;;;;;;22.99;54.76;100078.56;2211679;80;53038;-76